Time;durP1;ratioP1;P1;durP2;ratioP2;P2;SDS_P1;SDS_P2;PMS_P1;PMS_P2;Temp;Humidity;BMP_temperature;BMP_pressure;BME280_temperature;BME280_humidity;BME280_pressure;Samples;Min_cycle;Max_cycle;Signal;HPM_P1;HPM_P2
2022/09/01 00:00:09;;;;;;;1.10;1.00;;;16.40;99.90;;;;;;5096700;28;20451;-72
2022/09/01 00:02:36;;;;;;;1.63;1.10;;;16.40;92.40;;;;;;5096230;28;20482;-72
2022/09/01 00:05:06;;;;;;;1.23;1.13;;;16.50;1.00;;;;;;5096622;28;20444;-72
2022/09/01 00:07:34;;;;;;;1.40;1.30;;;16.50;1.00;;;;;;5096479;28;20447;-72
2022/09/01 00:10:04;;;;;;;2.07;1.53;;;16.50;1.00;;;;;;5096379;28;20447;-71
2022/09/01 00:12:31;;;;;;;3.50;1.60;;;16.60;1.00;;;;;;5096730;28;20532;-71
2022/09/01 00:14:59;;;;;;;1.33;1.23;;;16.50;99.90;;;;;;5096327;28;20479;-72
2022/09/01 00:17:26;;;;;;;2.30;1.53;;;16.40;99.90;;;;;;5096318;28;20520;-72
2022/09/01 00:19:53;;;;;;;3.00;1.00;;;16.10;99.90;;;;;;5096205;28;20493;-72
2022/09/01 00:22:21;;;;;;;2.00;1.00;;;16.40;38.60;;;;;;5096345;28;20471;-72
2022/09/01 00:24:48;;;;;;;4.00;1.10;;;16.40;22.70;;;;;;5096151;28;20845;-72
2022/09/01 00:27:15;;;;;;;2.23;1.40;;;16.40;99.90;;;;;;5096255;28;20424;-72
2022/09/01 00:29:42;;;;;;;1.90;1.10;;;16.30;99.90;;;;;;5096248;28;20455;-71
2022/09/01 00:32:08;;;;;;;1.10;1.00;;;16.40;1.00;;;;;;5096460;28;20463;-72
2022/09/01 00:34:35;;;;;;;1.37;1.00;;;16.40;1.00;;;;;;5096173;28;20506;-72
2022/09/01 00:37:02;;;;;;;1.10;1.00;;;16.30;1.00;;;;;;5095905;28;20480;-72
2022/09/01 00:39:30;;;;;;;1.60;1.20;;;16.30;1.00;;;;;;5096369;28;20448;-72
2022/09/01 00:41:58;;;;;;;1.23;1.10;;;16.30;1.00;;;;;;5095643;28;20555;-72
2022/09/01 00:44:26;;;;;;;1.73;1.10;;;16.40;1.00;;;;;;5096115;28;20515;-72
2022/09/01 00:46:55;;;;;;;1.70;1.33;;;16.30;1.00;;;;;;5095781;28;21001;-72
2022/09/01 00:49:26;;;;;;;1.30;1.20;;;16.30;1.00;;;;;;5095817;28;20529;-72
2022/09/01 00:51:58;;;;;;;1.67;1.57;;;16.30;1.00;;;;;;5096494;28;20639;-73
2022/09/01 00:54:28;;;;;;;3.53;1.57;;;16.30;1.00;;;;;;5095537;28;20998;-72
2022/09/01 00:56:57;;;;;;;1.10;1.00;;;16.30;1.00;;;;;;5095818;28;20424;-72
2022/09/01 00:59:26;;;;;;;1.20;1.10;;;16.30;1.50;;;;;;5095653;28;20833;-72
2022/09/01 01:01:53;;;;;;;1.93;0.93;;;16.30;99.90;;;;;;5095202;28;20491;-72
2022/09/01 01:04:20;;;;;;;1.20;1.10;;;16.30;99.90;;;;;;5095680;28;20476;-72
2022/09/01 01:06:57;;;;;;;1.13;1.03;;;16.30;99.90;;;;;;5095654;28;20439;-73
2022/09/01 01:09:25;;;;;;;1.40;1.30;;;16.20;99.90;;;;;;5101212;28;20434;-72
2022/09/01 01:11:52;;;;;;;1.60;1.10;;;16.20;99.90;;;;;;5096582;28;21006;-72
2022/09/01 01:14:20;;;;;;;4.20;1.03;;;16.20;99.90;;;;;;5095231;28;21032;-72
2022/09/01 01:16:50;;;;;;;2.07;1.27;;;16.30;99.90;;;;;;5095495;28;20452;-72
2022/09/01 01:24:54;;;;;;;1.13;1.00;;;16.20;99.90;;;;;;5095107;28;20431;-73
2022/09/01 01:27:21;;;;;;;1.57;1.47;;;16.20;99.90;;;;;;5095158;28;20489;-71
2022/09/01 01:29:51;;;;;;;1.30;1.20;;;16.10;99.90;;;;;;5095312;28;20451;-72
2022/09/01 01:32:17;;;;;;;1.30;1.20;;;16.10;1.00;;;;;;5094922;28;20832;-72
2022/09/01 01:34:45;;;;;;;1.57;1.10;;;16.00;99.90;;;;;;5094604;28;20487;-72
2022/09/01 01:37:14;;;;;;;1.13;1.03;;;16.10;1.00;;;;;;5094813;28;20453;-72
2022/09/01 01:39:43;;;;;;;1.20;1.10;;;16.00;1.00;;;;;;5094961;28;20447;-72
2022/09/01 01:42:11;;;;;;;1.10;1.00;;;16.00;1.00;;;;;;5095091;28;20468;-72
2022/09/01 01:44:39;;;;;;;1.00;1.00;;;16.00;1.00;;;;;;5094428;28;20927;-72
2022/09/01 01:47:11;;;;;;;1.40;1.03;;;15.90;99.90;;;;;;5094255;28;20467;-73
2022/09/01 01:49:42;;;;;;;1.23;1.00;;;16.00;99.90;;;;;;5095142;28;20450;-72
2022/09/01 01:52:13;;;;;;;1.30;1.17;;;16.00;99.90;;;;;;5094582;28;20470;-73
2022/09/01 01:54:40;;;;;;;1.13;1.13;;;15.90;1.00;;;;;;5094013;28;20562;-72
2022/09/01 01:57:07;;;;;;;1.30;1.20;;;15.90;99.90;;;;;;5094609;28;20820;-72
2022/09/01 01:59:37;;;;;;;1.33;1.23;;;15.90;99.90;;;;;;5094614;28;20444;-72
2022/09/01 02:02:08;;;;;;;1.37;1.20;;;15.90;1.00;;;;;;5094291;28;20918;-72
2022/09/01 02:04:35;;;;;;;1.83;1.17;;;15.90;99.90;;;;;;5094566;28;20489;-72
2022/09/01 02:07:02;;;;;;;1.23;1.10;;;15.80;1.00;;;;;;5094528;28;20819;-72
2022/09/01 02:09:29;;;;;;;1.60;1.13;;;15.90;1.00;;;;;;5094170;28;20439;-72
2022/09/01 02:11:56;;;;;;;1.17;1.07;;;16.00;99.90;;;;;;5094225;28;20460;-72
2022/09/01 02:14:23;;;;;;;1.67;1.33;;;15.90;1.00;;;;;;5094251;28;20479;-72
2022/09/01 02:16:54;;;;;;;1.90;1.37;;;15.80;99.90;;;;;;5094622;28;20823;-72
2022/09/01 02:19:22;;;;;;;1.13;1.03;;;15.70;1.00;;;;;;5097147;28;20519;-72
2022/09/01 02:21:53;;;;;;;1.20;1.10;;;15.70;35.40;;;;;;5097037;28;20467;-72
2022/09/01 02:24:20;;;;;;;1.97;1.33;;;15.70;15.00;;;;;;5097153;28;20503;-72
2022/09/01 02:26:47;;;;;;;2.40;1.10;;;15.70;1.00;;;;;;5095005;28;20448;-72
2022/09/01 02:29:17;;;;;;;1.20;1.10;;;15.70;99.90;;;;;;5094627;28;20538;-72
2022/09/01 02:31:46;;;;;;;2.23;1.23;;;15.70;99.90;;;;;;5093931;28;20467;-72
2022/09/01 02:34:14;;;;;;;2.20;1.40;;;15.60;99.90;;;;;;5093983;28;20448;-72
2022/09/01 02:36:46;;;;;;;2.20;1.83;;;15.60;99.90;;;;;;5093846;28;20471;-72
2022/09/01 02:39:14;;;;;;;1.47;1.23;;;15.60;99.90;;;;;;5093780;28;20433;-72
2022/09/01 02:41:40;;;;;;;1.23;1.10;;;15.60;1.00;;;;;;5093657;28;20471;-72
2022/09/01 02:44:10;;;;;;;1.27;1.17;;;15.60;99.90;;;;;;5093497;28;20962;-72
2022/09/01 02:46:40;;;;;;;1.73;1.00;;;15.60;1.00;;;;;;5093673;28;20451;-72
2022/09/01 02:49:14;;;;;;;1.40;1.30;;;15.50;1.00;;;;;;5098374;28;20944;-72
2022/09/01 02:51:42;;;;;;;1.03;1.00;;;15.50;1.00;;;;;;5099225;28;20471;-72
2022/09/01 02:54:09;;;;;;;1.33;1.23;;;15.50;1.00;;;;;;5094449;28;20814;-73
2022/09/01 02:56:36;;;;;;;3.83;1.20;;;15.50;1.00;;;;;;5093602;28;20459;-72
2022/09/01 02:59:04;;;;;;;1.83;1.37;;;15.40;1.00;;;;;;5093579;28;20443;-72
2022/09/01 03:01:32;;;;;;;1.50;1.40;;;15.50;1.00;;;;;;5093693;28;20480;-72
2022/09/01 03:04:04;;;;;;;1.70;1.20;;;15.30;1.00;;;;;;5093134;28;20950;-72
2022/09/01 03:06:32;;;;;;;1.27;1.03;;;15.30;1.00;;;;;;5092909;28;20432;-72
2022/09/01 03:09:01;;;;;;;1.77;1.20;;;15.20;1.00;;;;;;5093467;28;20538;-72
2022/09/01 03:11:30;;;;;;;3.10;1.50;;;15.30;1.00;;;;;;5093424;28;20444;-73
2022/09/01 03:13:57;;;;;;;1.50;1.40;;;15.10;1.00;;;;;;5093523;28;20447;-72
2022/09/01 03:16:24;;;;;;;2.83;1.60;;;15.00;1.00;;;;;;5094128;28;20486;-73
2022/09/01 03:18:51;;;;;;;1.20;1.10;;;15.00;1.00;;;;;;5093697;28;20820;-72
2022/09/01 03:21:18;;;;;;;1.63;1.23;;;14.90;1.00;;;;;;5093185;28;20444;-72
2022/09/01 03:23:46;;;;;;;2.80;1.67;;;14.80;1.00;;;;;;5093637;28;20440;-73
2022/09/01 03:26:17;;;;;;;2.70;1.30;;;14.80;1.00;;;;;;5093283;28;20449;-72
2022/09/01 03:28:44;;;;;;;1.63;1.20;;;14.80;1.00;;;;;;5093323;28;20524;-72
2022/09/01 03:31:11;;;;;;;3.13;1.40;;;14.70;32.00;;;;;;5093316;28;20886;-72
2022/09/01 03:33:38;;;;;;;1.70;1.40;;;14.70;23.50;;;;;;5093251;28;20815;-72
2022/09/01 03:36:06;;;;;;;1.80;1.20;;;14.60;15.20;;;;;;5093207;28;20458;-72
2022/09/01 03:38:33;;;;;;;2.43;1.80;;;14.60;25.90;;;;;;5093230;28;20828;-72
2022/09/01 03:41:03;;;;;;;1.47;1.37;;;14.60;49.10;;;;;;5093036;28;20451;-72
2022/09/01 03:43:33;;;;;;;1.30;1.10;;;14.60;17.80;;;;;;5093017;28;20464;-72
2022/09/01 03:46:00;;;;;;;1.87;1.40;;;14.60;40.40;;;;;;5092805;28;20916;-72
2022/09/01 03:48:28;;;;;;;3.37;1.47;;;14.50;48.30;;;;;;5093150;28;20796;-73
2022/09/01 03:50:59;;;;;;;1.87;1.50;;;14.50;86.00;;;;;;5093056;28;20459;-72
2022/09/01 03:53:26;;;;;;;3.00;1.50;;;14.50;99.90;;;;;;5092877;28;20528;-73
2022/09/01 03:55:58;;;;;;;2.60;2.37;;;14.40;99.90;;;;;;5092966;28;20479;-73
2022/09/01 03:58:26;;;;;;;3.50;1.63;;;14.40;99.90;;;;;;5093794;28;20849;-72
2022/09/01 04:00:57;;;;;;;2.27;1.57;;;14.30;99.90;;;;;;5092445;28;20538;-72
2022/09/01 04:03:30;;;;;;;1.67;1.20;;;14.40;99.90;;;;;;5114993;22;20844;-73
2022/09/01 04:05:58;;;;;;;2.23;1.33;;;14.30;99.90;;;;;;5092641;28;20431;-72
2022/09/01 04:08:30;;;;;;;2.40;1.63;;;14.20;99.90;;;;;;5092613;28;20443;-72
2022/09/01 04:10:58;;;;;;;1.83;1.63;;;14.10;99.90;;;;;;5092527;28;20485;-72
2022/09/01 04:13:29;;;;;;;2.30;2.00;;;14.10;99.90;;;;;;5093187;28;20560;-72
2022/09/01 04:15:57;;;;;;;2.80;1.67;;;14.00;99.90;;;;;;5092300;28;20463;-72
2022/09/01 04:18:24;;;;;;;1.63;1.50;;;14.10;99.90;;;;;;5096005;28;20447;-73
2022/09/01 04:20:55;;;;;;;4.47;1.77;;;14.00;99.90;;;;;;5095979;28;20471;-72
2022/09/01 04:23:26;;;;;;;1.40;1.30;;;14.00;99.90;;;;;;5096040;28;20468;-72
2022/09/01 04:25:55;;;;;;;1.73;1.63;;;14.00;99.90;;;;;;5095862;28;20497;-72
2022/09/01 04:28:23;;;;;;;1.70;1.60;;;14.00;99.90;;;;;;5095823;28;20447;-71
2022/09/01 04:30:54;;;;;;;2.50;1.97;;;14.00;99.90;;;;;;5095526;28;20491;-72
2022/09/01 04:33:24;;;;;;;2.03;1.83;;;13.90;99.90;;;;;;5095590;28;21002;-71
2022/09/01 04:35:55;;;;;;;3.67;1.83;;;14.00;99.90;;;;;;5095290;28;20507;-72
2022/09/01 04:38:23;;;;;;;2.37;2.07;;;13.90;99.90;;;;;;5095293;28;20471;-73
2022/09/01 04:40:52;;;;;;;1.90;1.80;;;13.90;99.90;;;;;;5095452;28;20475;-73
2022/09/01 04:43:19;;;;;;;3.33;2.43;;;13.90;99.90;;;;;;5095182;28;20462;-73
2022/09/01 04:45:50;;;;;;;2.20;1.93;;;14.00;99.90;;;;;;5095443;28;20948;-72
2022/09/01 04:48:18;;;;;;;2.50;2.13;;;14.00;99.90;;;;;;5095402;28;20432;-72
2022/09/01 04:50:48;;;;;;;3.30;2.30;;;14.00;99.90;;;;;;5095092;28;20936;-73
2022/09/01 04:53:17;;;;;;;3.20;1.83;;;14.00;99.90;;;;;;5095016;28;20468;-72
2022/09/01 04:55:45;;;;;;;3.67;1.70;;;14.00;99.90;;;;;;5094847;28;21041;-73
2022/09/01 04:58:16;;;;;;;4.63;2.00;;;14.00;99.90;;;;;;5095153;28;20474;-72
2022/09/01 05:00:43;;;;;;;3.30;1.87;;;14.10;99.90;;;;;;5095547;28;20435;-73
2022/09/01 05:03:11;;;;;;;3.00;2.17;;;14.20;99.90;;;;;;5094715;28;21012;-73
2022/09/01 05:05:41;;;;;;;5.37;3.00;;;14.10;99.90;;;;;;5095104;28;20528;-73
2022/09/01 05:08:13;;;;;;;6.03;2.20;;;14.20;99.90;;;;;;5094963;28;20436;-73
2022/09/01 05:10:41;;;;;;;2.23;2.03;;;14.20;99.90;;;;;;5095110;28;20428;-72
2022/09/01 05:13:11;;;;;;;2.20;2.00;;;14.20;99.90;;;;;;5095046;28;20521;-72
2022/09/01 05:15:39;;;;;;;2.77;2.23;;;14.10;99.90;;;;;;5094641;28;20525;-72
2022/09/01 05:18:08;;;;;;;3.03;2.00;;;14.20;99.90;;;;;;5094938;28;20455;-72
2022/09/01 05:20:41;;;;;;;3.70;1.90;;;14.30;99.90;;;;;;5094846;28;20489;-72
2022/09/01 05:23:11;;;;;;;4.93;2.00;;;14.30;99.90;;;;;;5094793;28;20995;-72
2022/09/01 05:25:40;;;;;;;2.93;1.90;;;14.30;99.70;;;;;;5094649;28;20489;-72
2022/09/01 05:28:08;;;;;;;2.97;2.30;;;14.30;99.90;;;;;;5095880;28;20440;-72
2022/09/01 05:30:37;;;;;;;2.00;1.40;;;14.30;99.90;;;;;;5097430;28;20983;-72
2022/09/01 05:33:09;;;;;;;4.70;2.10;;;14.30;99.90;;;;;;5096613;28;20483;-72
2022/09/01 05:35:36;;;;;;;4.90;1.90;;;14.30;94.40;;;;;;5096106;28;20517;-72
2022/09/01 05:38:03;;;;;;;2.20;1.77;;;14.30;99.40;;;;;;5094006;28;20955;-71
2022/09/01 05:40:39;;;;;;;2.43;2.00;;;14.40;91.10;;;;;;5094366;28;20452;-73
2022/09/01 05:43:09;;;;;;;3.10;2.30;;;14.50;88.80;;;;;;5094222;28;20834;-72
2022/09/01 05:45:37;;;;;;;2.20;2.00;;;14.50;31.70;;;;;;5094279;28;20468;-72
2022/09/01 05:48:04;;;;;;;4.40;2.43;;;14.50;28.10;;;;;;5093626;28;21039;-72
2022/09/01 05:50:31;;;;;;;9.07;2.70;;;14.50;59.40;;;;;;5094034;28;20451;-72
2022/09/01 05:52:58;;;;;;;5.83;2.80;;;14.60;21.50;;;;;;5093936;28;20468;-72
2022/09/01 05:55:26;;;;;;;9.87;2.10;;;14.60;1.00;;;;;;5093967;28;20447;-71
2022/09/01 05:57:56;;;;;;;4.60;2.43;;;14.60;6.70;;;;;;5094222;28;20815;-71
2022/09/01 06:00:22;;;;;;;5.63;4.00;;;14.70;1.00;;;;;;5094206;28;20451;-72
2022/09/01 06:02:50;;;;;;;4.57;2.37;;;14.80;1.00;;;;;;5093664;28;20468;-72
2022/09/01 06:05:17;;;;;;;3.13;2.00;;;14.80;1.00;;;;;;5093593;28;20459;-72
2022/09/01 06:07:44;;;;;;;4.03;2.90;;;14.80;1.00;;;;;;5093927;28;20463;-72
2022/09/01 06:10:11;;;;;;;5.33;2.13;;;14.80;1.00;;;;;;5093829;28;20448;-73
2022/09/01 06:12:38;;;;;;;2.80;2.20;;;14.80;1.00;;;;;;5093393;28;21052;-71
2022/09/01 06:15:14;;;;;;;2.30;2.10;;;14.80;26.50;;;;;;5093578;28;20459;-72
2022/09/01 06:17:42;;;;;;;4.67;2.30;;;14.60;1.00;;;;;;5093613;28;20423;-72
2022/09/01 06:20:09;;;;;;;5.60;2.43;;;14.80;1.00;;;;;;5093274;28;20534;-72
2022/09/01 06:22:36;;;;;;;4.77;2.40;;;14.90;1.00;;;;;;5093472;28;20460;-71
2022/09/01 06:25:05;;;;;;;5.90;3.10;;;14.90;1.00;;;;;;5093710;28;20444;-71
2022/09/01 06:27:41;;;;;;;2.50;1.77;;;14.90;1.00;;;;;;5093336;28;20861;-73
2022/09/01 06:30:13;;;;;;;3.40;2.43;;;14.90;1.00;;;;;;5093019;28;20428;-73
2022/09/01 06:32:42;;;;;;;2.23;2.13;;;15.00;1.00;;;;;;5093363;28;20464;-72
2022/09/01 06:35:10;;;;;;;1.83;1.70;;;15.10;1.00;;;;;;5093154;28;20444;-73
2022/09/01 06:37:37;;;;;;;5.10;1.60;;;15.10;1.00;;;;;;5092804;28;20593;-72
2022/09/01 06:40:06;;;;;;;2.50;2.07;;;15.30;1.00;;;;;;5093092;28;20455;-73
2022/09/01 06:42:34;;;;;;;3.00;2.07;;;15.30;1.00;;;;;;5093671;28;20464;-73
2022/09/01 06:45:01;;;;;;;4.40;1.70;;;15.30;1.00;;;;;;5093309;28;20538;-72
2022/09/01 06:47:29;;;;;;;1.87;1.63;;;15.40;1.00;;;;;;5093268;28;20444;-72
2022/09/01 06:49:57;;;;;;;2.40;1.50;;;15.40;1.00;;;;;;5093345;28;20449;-72
2022/09/01 06:52:24;;;;;;;107.53;11.27;;;15.60;1.00;;;;;;5092968;28;20468;-72
2022/09/01 06:54:52;;;;;;;11.33;2.33;;;15.60;1.00;;;;;;5093137;28;20959;-71
2022/09/01 06:57:18;;;;;;;2.20;1.63;;;15.70;99.90;;;;;;5092775;28;20525;-72
2022/09/01 06:59:46;;;;;;;1.53;1.43;;;15.80;99.90;;;;;;5093026;28;20428;-72
2022/09/01 07:02:15;;;;;;;4.63;1.90;;;15.80;99.90;;;;;;5092823;28;20865;-71
2022/09/01 07:04:43;;;;;;;2.90;1.70;;;15.90;99.90;;;;;;5092701;28;20428;-72
2022/09/01 07:07:11;;;;;;;21.10;2.60;;;16.00;99.90;;;;;;5092804;28;20451;-72
2022/09/01 07:09:39;;;;;;;16.70;3.30;;;16.10;99.90;;;;;;5093480;28;20447;-72
2022/09/01 07:12:06;;;;;;;31.77;4.57;;;16.10;1.00;;;;;;5092779;28;20799;-72
2022/09/01 07:14:33;;;;;;;14.80;5.23;;;16.20;1.00;;;;;;5093033;28;20955;-73
2022/09/01 07:17:00;;;;;;;13.17;3.43;;;16.20;99.90;;;;;;5093025;28;20484;-73
2022/09/01 07:19:26;;;;;;;7.30;2.33;;;16.30;99.90;;;;;;5092975;28;20931;-72
2022/09/01 07:21:55;;;;;;;10.80;2.90;;;16.30;1.00;;;;;;5092878;28;20440;-72
2022/09/01 07:24:21;;;;;;;7.63;1.80;;;16.30;1.00;;;;;;5093255;28;20444;-73
2022/09/01 07:26:49;;;;;;;3.67;1.40;;;16.40;1.00;;;;;;5092808;28;20455;-72
2022/09/01 07:29:21;;;;;;;12.03;2.30;;;16.40;99.90;;;;;;5092835;28;20479;-72
2022/09/01 07:31:49;;;;;;;39.17;4.30;;;16.80;99.90;;;;;;5093051;28;20428;-72
2022/09/01 07:34:16;;;;;;;1.67;1.20;;;16.50;99.90;;;;;;5093151;28;20530;-72
2022/09/01 07:36:43;;;;;;;3.30;1.43;;;16.70;1.00;;;;;;5092930;28;20487;-71
2022/09/01 07:39:13;;;;;;;1.60;1.33;;;16.70;1.00;;;;;;5092707;28;20450;-72
2022/09/01 07:41:41;;;;;;;11.47;1.93;;;16.70;93.30;;;;;;5093529;28;20738;-72
2022/09/01 07:44:13;;;;;;;8.53;1.97;;;16.70;57.70;;;;;;5092754;28;20894;-73
2022/09/01 07:46:41;;;;;;;13.03;2.27;;;16.70;99.90;;;;;;5092729;28;20420;-73
2022/09/01 07:49:08;;;;;;;1.53;1.43;;;16.80;1.00;;;;;;5092596;28;21005;-71
2022/09/01 07:51:35;;;;;;;24.07;6.37;;;16.80;99.90;;;;;;5093701;28;20928;-72
2022/09/01 07:54:02;;;;;;;3.90;1.00;;;16.80;99.90;;;;;;5096453;28;20482;-73
2022/09/01 07:56:30;;;;;;;2.97;1.47;;;16.80;1.00;;;;;;5095977;28;21024;-72
2022/09/01 07:58:58;;;;;;;2.30;1.20;;;16.90;1.00;;;;;;5096388;28;20887;-73
2022/09/01 08:01:27;;;;;;;1.70;1.30;;;17.10;1.00;;;;;;5096029;28;20447;-72
2022/09/01 08:03:56;;;;;;;5.07;1.50;;;17.10;99.90;;;;;;5095829;28;20513;-72
2022/09/01 08:06:25;;;;;;;2.73;2.07;;;17.10;39.00;;;;;;5096119;28;20435;-72
2022/09/01 08:08:54;;;;;;;1.63;1.47;;;17.20;99.90;;;;;;5096887;28;20443;-72
2022/09/01 08:11:23;;;;;;;3.60;1.53;;;17.30;99.90;;;;;;5095966;28;20454;-72
2022/09/01 08:13:52;;;;;;;2.70;1.47;;;17.30;1.00;;;;;;5096173;28;20838;-73
2022/09/01 08:16:20;;;;;;;6.43;1.43;;;17.30;1.00;;;;;;5096269;28;20505;-73
2022/09/01 08:18:48;;;;;;;15.87;2.60;;;17.40;99.90;;;;;;5096067;28;20509;-72
2022/09/01 08:21:15;;;;;;;8.80;1.57;;;17.40;99.90;;;;;;5095496;28;20451;-72
2022/09/01 08:23:42;;;;;;;1.30;1.20;;;17.40;99.90;;;;;;5095818;28;20467;-72
2022/09/01 08:26:11;;;;;;;3.80;2.00;;;17.40;99.90;;;;;;5095953;28;20450;-72
2022/09/01 08:28:38;;;;;;;1.03;0.93;;;17.50;99.90;;;;;;5095836;28;20801;-73
2022/09/01 08:31:09;;;;;;;1.97;1.67;;;17.50;99.90;;;;;;5095800;28;20448;-73
2022/09/01 08:33:36;;;;;;;1.50;1.20;;;17.60;99.90;;;;;;5095729;28;20468;-72
2022/09/01 08:36:03;;;;;;;3.80;1.57;;;17.70;99.90;;;;;;5095759;28;20451;-73
2022/09/01 08:38:30;;;;;;;1.20;1.10;;;17.70;1.00;;;;;;5095606;28;20807;-72
2022/09/01 08:40:59;;;;;;;1.40;1.10;;;17.80;1.00;;;;;;5095633;28;20928;-72
2022/09/01 08:43:36;;;;;;;4.50;1.03;;;17.80;99.90;;;;;;5095042;28;20474;-72
2022/09/01 08:46:11;;;;;;;1.50;1.40;;;17.80;99.90;;;;;;5095162;28;20456;-72
2022/09/01 08:48:41;;;;;;;1.27;1.10;;;17.90;99.90;;;;;;5095335;28;20428;-72
2022/09/01 08:51:15;;;;;;;3.17;1.60;;;18.00;99.90;;;;;;5095673;28;20471;-71
2022/09/01 08:53:48;;;;;;;2.47;1.20;;;18.10;99.90;;;;;;5095243;28;20458;-72
2022/09/01 08:56:18;;;;;;;2.00;1.17;;;18.10;24.30;;;;;;5094984;28;20439;-71
2022/09/01 08:58:44;;;;;;;1.20;1.10;;;18.10;99.90;;;;;;5094640;28;20452;-71
2022/09/01 09:01:20;;;;;;;1.30;1.20;;;18.10;99.90;;;;;;5094832;28;20439;-72
2022/09/01 09:03:57;;;;;;;4.40;1.57;;;17.90;99.90;;;;;;5094422;28;20486;-73
2022/09/01 09:06:31;;;;;;;1.43;1.33;;;18.20;28.20;;;;;;5095576;28;20432;-72
2022/09/01 09:09:02;;;;;;;3.60;1.60;;;18.20;1.00;;;;;;5094973;28;20431;-72
2022/09/01 09:11:46;;;;;;;1.80;1.13;;;18.20;58.70;;;;;;5094731;28;20429;-72
2022/09/01 09:14:26;;;;;;;1.43;1.33;;;18.30;24.50;;;;;;5094662;28;20440;-73
2022/09/01 09:16:55;;;;;;;2.90;1.47;;;18.30;1.00;;;;;;5094411;28;20983;-73
2022/09/01 09:19:24;;;;;;;4.23;2.40;;;18.40;99.90;;;;;;5094513;28;20454;-72
2022/09/01 09:21:53;;;;;;;2.43;1.50;;;18.80;1.00;;;;;;5094394;28;20448;-71
2022/09/01 09:24:27;;;;;;;2.70;1.50;;;18.60;1.00;;;;;;5094506;28;20452;-72
2022/09/01 09:26:56;;;;;;;6.33;1.37;;;18.50;1.00;;;;;;5094684;28;20495;-71
2022/09/01 09:29:23;;;;;;;1.37;1.27;;;18.50;1.00;;;;;;5094361;28;20443;-71
2022/09/01 09:32:04;;;;;;;2.27;1.60;;;18.40;99.90;;;;;;5094959;28;20466;-72
2022/09/01 09:34:34;;;;;;;1.20;1.10;;;18.70;99.90;;;;;;5094212;28;20428;-72
2022/09/01 09:37:17;;;;;;;4.50;1.10;;;18.80;99.90;;;;;;5094322;28;20468;-72
2022/09/01 09:39:44;;;;;;;14.13;1.50;;;18.80;1.00;;;;;;5094393;28;20464;-71
2022/09/01 09:42:14;;;;;;;1.77;1.00;;;18.60;1.00;;;;;;5094292;28;20475;-71
2022/09/01 09:44:45;;;;;;;1.63;1.30;;;18.60;1.00;;;;;;5093898;28;20929;-71
2022/09/01 09:47:35;;;;;;;2.80;1.10;;;18.80;2.10;;;;;;5094032;28;20424;-71
2022/09/01 09:50:17;;;;;;;1.20;1.00;;;18.80;99.90;;;;;;5093696;28;20435;-71
2022/09/01 09:52:45;;;;;;;1.20;1.10;;;18.80;1.00;;;;;;5093898;28;20467;-72
2022/09/01 09:55:22;;;;;;;2.20;1.27;;;18.70;1.00;;;;;;5094409;28;20452;-72
2022/09/01 09:57:50;;;;;;;1.27;1.17;;;18.70;99.90;;;;;;5093908;28;20467;-73
2022/09/01 10:00:21;;;;;;;1.40;1.30;;;18.60;99.90;;;;;;5094010;28;20450;-72
2022/09/01 10:02:55;;;;;;;5.33;1.20;;;18.70;1.00;;;;;;5115866;22;20495;-71
2022/09/01 10:05:28;;;;;;;5.77;2.10;;;18.90;1.00;;;;;;5094596;28;20791;-73
2022/09/01 10:07:57;;;;;;;5.13;2.10;;;18.90;1.00;;;;;;5094339;28;20931;-72
2022/09/01 10:10:31;;;;;;;3.40;1.20;;;18.80;1.00;;;;;;5094334;28;20982;-72
2022/09/01 10:12:59;;;;;;;1.57;1.40;;;18.90;1.00;;;;;;5094469;28;20809;-72
2022/09/01 10:15:29;;;;;;;1.43;1.33;;;18.90;1.00;;;;;;5095057;28;20444;-72
2022/09/01 10:18:04;;;;;;;2.90;1.63;;;19.10;99.90;;;;;;5097120;28;20464;-72
2022/09/01 10:20:31;;;;;;;1.40;1.07;;;19.00;1.00;;;;;;5095038;28;20431;-72
2022/09/01 10:22:57;;;;;;;1.20;1.10;;;19.10;1.00;;;;;;5094229;28;20552;-73
2022/09/01 10:25:28;;;;;;;4.43;1.30;;;19.20;1.00;;;;;;5094219;28;20451;-71
2022/09/01 10:28:02;;;;;;;2.20;1.00;;;19.20;1.00;;;;;;5093858;28;20428;-72
2022/09/01 10:30:29;;;;;;;2.60;1.23;;;19.20;1.00;;;;;;5096190;28;20432;-72
2022/09/01 10:32:59;;;;;;;2.13;1.20;;;19.20;1.00;;;;;;5096766;28;20471;-72
2022/09/01 10:35:29;;;;;;;2.70;1.83;;;19.10;1.00;;;;;;5096790;28;20946;-72
2022/09/01 10:37:57;;;;;;;3.00;1.67;;;19.10;1.00;;;;;;5097264;28;20492;-72
2022/09/01 10:40:40;;;;;;;46.37;4.73;;;19.00;1.00;;;;;;5095216;28;20766;-72
2022/09/01 10:43:32;;;;;;;5.20;1.40;;;19.10;1.00;;;;;;5093844;28;20550;-72
2022/09/01 10:45:59;;;;;;;4.60;1.20;;;19.10;1.00;;;;;;5093666;28;20430;-72
2022/09/01 10:48:32;;;;;;;1.67;1.00;;;19.40;1.00;;;;;;5093737;28;20470;-72
2022/09/01 10:51:36;;;;;;;2.07;0.93;;;19.50;1.00;;;;;;5093696;28;20448;-72
2022/09/01 10:54:04;;;;;;;33.13;4.63;;;19.60;1.00;;;;;;5093557;28;20467;-72
2022/09/01 10:56:40;;;;;;;3.10;1.30;;;19.60;1.00;;;;;;5093649;28;20502;-72
2022/09/01 10:59:09;;;;;;;7.80;1.93;;;19.50;1.00;;;;;;5103159;28;20400;-72
2022/09/01 11:02:08;;;;;;;1.97;1.10;;;19.40;1.00;;;;;;5106249;28;20444;-72
2022/09/01 11:05:17;;;;;;;1.07;0.97;;;19.30;1.00;;;;;;5094542;28;20439;-71
2022/09/01 11:07:45;;;;;;;1.10;1.00;;;19.20;1.00;;;;;;5093035;28;20424;-73
2022/09/01 11:10:37;;;;;;;2.07;1.40;;;19.30;1.00;;;;;;5093670;28;20451;-72
2022/09/01 11:13:35;;;;;;;2.40;1.10;;;19.40;1.90;;;;;;5093563;28;20525;-73
2022/09/01 11:16:28;;;;;;;34.53;6.40;;;19.60;1.00;;;;;;5093510;28;20792;-71
2022/09/01 11:18:55;;;;;;;19.77;6.10;;;19.70;1.00;;;;;;5093592;28;20471;-72
2022/09/01 11:21:27;;;;;;;4.47;4.07;;;20.00;1.00;;;;;;5093400;28;20459;-72
2022/09/01 11:24:27;;;;;;;2.47;2.37;;;20.10;1.00;;;;;;5093393;28;20964;-72
2022/09/01 11:26:54;;;;;;;2.83;1.60;;;20.20;1.00;;;;;;5096222;28;20439;-73
2022/09/01 11:29:53;;;;;;;2.00;1.00;;;20.30;1.00;;;;;;5097411;28;20443;-72
2022/09/01 11:32:21;;;;;;;1.20;1.10;;;20.00;1.00;;;;;;5097421;28;20444;-72
2022/09/01 11:34:49;;;;;;;1.47;1.10;;;20.10;1.00;;;;;;5097528;28;20444;-73
2022/09/01 11:37:22;;;;;;;6.90;1.67;;;20.00;1.00;;;;;;5097380;28;20525;-73
2022/09/01 11:39:51;;;;;;;3.40;2.73;;;20.00;50.30;;;;;;5097383;28;20428;-72
2022/09/01 11:42:21;;;;;;;2.13;1.70;;;20.10;1.00;;;;;;5097473;28;20963;-72
2022/09/01 11:44:56;;;;;;;8.90;1.70;;;20.00;1.00;;;;;;5097771;28;20800;-73
2022/09/01 11:47:26;;;;;;;1.87;1.13;;;20.00;1.00;;;;;;5097199;28;20420;-73
2022/09/01 11:49:55;;;;;;;2.73;1.23;;;20.00;1.00;;;;;;5097762;28;20439;-72
2022/09/01 11:52:27;;;;;;;2.30;1.30;;;20.00;1.00;;;;;;5097363;28;20464;-72
2022/09/01 11:54:54;;;;;;;0.80;0.80;;;20.00;1.00;;;;;;5097455;28;20431;-73
2022/09/01 11:57:31;;;;;;;3.57;1.80;;;20.00;1.00;;;;;;5098231;28;21010;-72
2022/09/01 11:59:59;;;;;;;1.77;1.30;;;20.10;1.00;;;;;;5097392;28;20904;-72
2022/09/01 12:02:29;;;;;;;96.57;9.90;;;20.10;1.00;;;;;;5096947;28;20478;-72
2022/09/01 12:04:57;;;;;;;2.77;1.40;;;20.00;1.00;;;;;;5097044;28;20471;-73
2022/09/01 12:07:38;;;;;;;1.90;1.13;;;19.80;1.00;;;;;;5097179;28;20966;-73
2022/09/01 12:10:17;;;;;;;6.30;1.43;;;19.90;1.00;;;;;;5096961;28;20481;-72
2022/09/01 12:12:43;;;;;;;6.00;1.87;;;19.90;1.00;;;;;;5096647;28;20486;-73
2022/09/01 12:15:18;;;;;;;2.80;2.27;;;19.90;1.00;;;;;;5096232;28;20510;-72
2022/09/01 12:17:45;;;;;;;4.67;2.17;;;19.90;1.00;;;;;;5096792;28;20471;-73
2022/09/01 12:23:39;;;;;;;1.10;1.00;;;20.10;1.00;;;;;;5096852;28;20472;-72
2022/09/01 12:26:08;;;;;;;1.80;1.70;;;20.40;95.30;;;;;;5096805;28;20428;-72
2022/09/01 12:28:40;;;;;;;2.37;1.53;;;20.30;1.00;;;;;;5097034;28;20501;-73
2022/09/01 12:31:12;;;;;;;2.17;1.10;;;20.30;1.00;;;;;;5097171;28;20493;-73
2022/09/01 12:33:40;;;;;;;1.47;0.80;;;20.30;1.00;;;;;;5098459;28;20468;-74
2022/09/01 12:36:24;;;;;;;1.17;1.10;;;20.10;1.00;;;;;;5100674;28;20448;-74
2022/09/01 12:38:53;;;;;;;1.73;1.20;;;20.10;1.00;;;;;;5101491;28;20502;-72
2022/09/01 12:41:25;;;;;;;4.13;2.57;;;20.10;1.00;;;;;;5099540;28;20448;-72
2022/09/01 12:43:52;;;;;;;1.10;1.00;;;20.00;1.00;;;;;;5096382;28;20467;-73
2022/09/01 12:46:41;;;;;;;1.20;1.00;;;20.00;1.00;;;;;;5096337;28;20479;-72
2022/09/01 12:49:18;;;;;;;3.47;1.60;;;19.90;1.00;;;;;;5096141;28;20517;-72
2022/09/01 12:51:46;;;;;;;3.30;1.40;;;19.90;1.00;;;;;;5096083;28;20823;-72
2022/09/01 12:54:15;;;;;;;2.03;1.80;;;19.90;1.00;;;;;;5095959;28;20550;-72
2022/09/01 12:56:49;;;;;;;2.20;1.27;;;20.00;1.00;;;;;;5095846;28;20531;-73
2022/09/01 12:59:22;;;;;;;2.63;1.43;;;20.10;1.00;;;;;;5095984;28;20489;-73
2022/09/01 13:01:49;;;;;;;3.60;1.27;;;20.10;1.00;;;;;;5097119;28;20428;-73
2022/09/01 13:04:26;;;;;;;3.40;2.80;;;20.00;1.00;;;;;;5097690;28;20479;-72
2022/09/01 13:10:16;;;;;;;2.53;2.27;;;20.20;1.00;;;;;;5097040;28;20388;-73
2022/09/01 13:12:44;;;;;;;4.40;3.50;;;20.30;1.00;;;;;;5096030;28;20530;-71
2022/09/01 13:15:12;;;;;;;4.17;1.67;;;20.40;1.00;;;;;;5095485;28;20435;-73
2022/09/01 13:17:39;;;;;;;3.97;2.83;;;20.30;1.00;;;;;;5095448;28;20444;-73